Time;durP1;ratioP1;P1;durP2;ratioP2;P2;SDS_P1;SDS_P2;PMS_P1;PMS_P2;Temp;Humidity;BMP_temperature;BMP_pressure;BME280_temperature;BME280_humidity;BME280_pressure;Samples;Min_cycle;Max_cycle;Signal;HPM_P1;HPM_P2
2023/10/09 00:01:25;;;;;;;17.15;5.55;;;;;;;;;;5071302;28;20024;-65
2023/10/09 00:03:53;;;;;;;14.88;5.53;;;;;;;;;;5069940;28;20033;-65
2023/10/09 00:06:30;;;;;;;19.63;5.25;;;;;;;;;;5071026;28;20025;-65
2023/10/09 00:08:56;;;;;;;21.80;5.53;;;;;;;;;;5062817;28;20047;-65
2023/10/09 00:11:26;;;;;;;20.77;6.50;;;;;;;;;;5060892;28;20025;-65
2023/10/09 00:13:57;;;;;;;26.98;6.45;;;;;;;;;;5044041;28;20057;-65
2023/10/09 00:16:32;;;;;;;20.27;5.60;;;;;;;;;;5063686;28;20478;-65
2023/10/09 00:19:12;;;;;;;21.45;6.15;;;;;;;;;;5059485;28;20492;-65
2023/10/09 00:21:38;;;;;;;20.50;5.63;;;;;;;;;;5071252;28;20029;-65
2023/10/09 00:24:13;;;;;;;20.58;6.15;;;;;;;;;;5069559;28;20957;-65
2023/10/09 00:26:44;;;;;;;27.83;7.30;;;;;;;;;;5070881;28;20025;-65
2023/10/09 00:29:15;;;;;;;25.15;7.25;;;;;;;;;;5070122;28;20031;-65
2023/10/09 00:31:49;;;;;;;17.25;5.65;;;;;;;;;;5057798;28;20025;-65
2023/10/09 00:34:19;;;;;;;19.63;6.15;;;;;;;;;;5045864;28;20031;-65
2023/10/09 00:36:51;;;;;;;19.80;5.40;;;;;;;;;;5070266;28;20052;-65
2023/10/09 00:42:01;;;;;;;22.20;6.72;;;;;;;;;;5070138;28;20115;-65
2023/10/09 00:44:38;;;;;;;27.92;6.80;;;;;;;;;;5070273;28;20017;-65
2023/10/09 00:47:20;;;;;;;17.10;5.18;;;;;;;;;;5070101;28;20086;-65
2023/10/09 00:49:47;;;;;;;16.17;5.07;;;;;;;;;;5056572;28;20127;-65
2023/10/09 00:52:22;;;;;;;27.75;5.93;;;;;;;;;;5070599;28;20504;-65
2023/10/09 00:54:51;;;;;;;21.52;6.30;;;;;;;;;;5068382;28;20424;-65
2023/10/09 00:57:24;;;;;;;28.13;6.00;;;;;;;;;;5070621;28;20021;-65
2023/10/09 00:59:59;;;;;;;24.10;6.07;;;;;;;;;;5072141;28;20474;-65
2023/10/09 01:02:35;;;;;;;22.23;5.97;;;;;;;;;;5074356;28;20036;-65
2023/10/09 01:05:10;;;;;;;18.25;5.05;;;;;;;;;;5073110;28;20059;-65
2023/10/09 01:07:38;;;;;;;21.63;5.97;;;;;;;;;;5064688;28;20082;-65
2023/10/09 01:10:35;;;;;;;23.10;5.47;;;;;;;;;;5064271;28;20046;-65
2023/10/09 01:12:55;;;;;;;19.40;5.15;;;;;;;;;;5067905;28;20039;-65
2023/10/09 01:15:36;;;;;;;21.85;6.25;;;;;;;;;;5066131;28;20478;-65
2023/10/09 01:18:04;;;;;;;20.45;6.50;;;;;;;;;;5048472;28;20040;-65
2023/10/09 01:20:40;;;;;;;15.15;6.38;;;;;;;;;;5067743;28;20029;-65
2023/10/09 01:23:07;;;;;;;17.08;5.90;;;;;;;;;;5063481;28;20025;-65
2023/10/09 01:25:42;;;;;;;21.60;5.68;;;;;;;;;;5073125;28;20162;-65
2023/10/09 01:28:08;;;;;;;23.73;6.88;;;;;;;;;;5073262;28;20024;-65
2023/10/09 01:30:40;;;;;;;19.67;5.60;;;;;;;;;;5072846;28;20029;-65
2023/10/09 01:33:12;;;;;;;17.00;5.78;;;;;;;;;;5073002;28;20488;-65
2023/10/09 01:35:47;;;;;;;23.02;6.15;;;;;;;;;;5067221;28;20454;-65
2023/10/09 01:38:14;;;;;;;22.30;5.43;;;;;;;;;;5067759;28;20039;-65
2023/10/09 01:40:40;;;;;;;21.50;6.15;;;;;;;;;;5060717;28;20036;-65
2023/10/09 01:43:09;;;;;;;23.90;6.18;;;;;;;;;;5072552;28;20619;-65
2023/10/09 01:45:42;;;;;;;20.63;6.70;;;;;;;;;;5072943;28;20346;-65
2023/10/09 01:48:09;;;;;;;19.38;5.45;;;;;;;;;;5072099;28;20048;-65
2023/10/09 01:50:41;;;;;;;18.63;5.20;;;;;;;;;;5072863;28;20442;-65
2023/10/09 01:53:08;;;;;;;24.52;5.35;;;;;;;;;;5071836;28;20021;-65
2023/10/09 01:55:40;;;;;;;23.77;5.70;;;;;;;;;;5072682;28;20107;-65
2023/10/09 02:00:53;;;;;;;18.95;5.47;;;;;;;;;;5072116;28;20037;-65
2023/10/09 02:03:23;;;;;;;17.85;6.05;;;;;;;;;;5073197;28;20111;-65
2023/10/09 02:05:50;;;;;;;23.77;5.28;;;;;;;;;;5071751;28;20104;-65
2023/10/09 02:08:21;;;;;;;20.55;5.40;;;;;;;;;;5070876;28;20359;-65
2023/10/09 02:10:48;;;;;;;17.40;5.53;;;;;;;;;;5066042;28;20068;-65
2023/10/09 02:13:17;;;;;;;21.63;5.80;;;;;;;;;;5072995;28;20103;-65
2023/10/09 02:21:12;;;;;;;24.30;6.47;;;;;;;;;;5067812;28;20508;-65
2023/10/09 02:23:46;;;;;;;20.57;5.27;;;;;;;;;;5073097;28;20025;-65
2023/10/09 02:26:26;;;;;;;16.75;5.35;;;;;;;;;;5072677;28;20259;-65
2023/10/09 02:28:58;;;;;;;16.27;5.33;;;;;;;;;;5071220;28;20051;-65
2023/10/09 02:31:27;;;;;;;20.25;6.10;;;;;;;;;;5063665;28;20057;-65
2023/10/09 02:33:55;;;;;;;19.15;5.13;;;;;;;;;;5058044;28;20086;-65
2023/10/09 02:36:21;;;;;;;17.30;5.57;;;;;;;;;;5072414;28;20029;-65
2023/10/09 02:38:48;;;;;;;17.70;5.57;;;;;;;;;;5071566;28;20031;-66
2023/10/09 02:43:44;;;;;;;21.70;5.70;;;;;;;;;;5072301;28;20036;-65
2023/10/09 02:46:17;;;;;;;19.00;4.93;;;;;;;;;;5071455;28;20779;-65
2023/10/09 02:48:48;;;;;;;18.15;5.25;;;;;;;;;;5061992;28;20494;-65
2023/10/09 02:54:34;;;;;;;28.77;6.70;;;;;;;;;;5056120;28;20037;-65
2023/10/09 02:57:07;;;;;;;20.17;6.57;;;;;;;;;;5070369;28;20032;-65
2023/10/09 02:59:33;;;;;;;16.63;5.72;;;;;;;;;;5071476;28;20109;-65
2023/10/09 03:02:02;;;;;;;24.50;6.47;;;;;;;;;;5071654;28;20103;-65
2023/10/09 03:04:31;;;;;;;24.20;5.75;;;;;;;;;;5065233;28;20103;-64
2023/10/09 03:06:57;;;;;;;21.90;5.90;;;;;;;;;;5049862;28;20100;-65
2023/10/09 03:09:27;;;;;;;22.02;5.72;;;;;;;;;;5063717;28;20064;-65
2023/10/09 03:12:03;;;;;;;25.10;6.78;;;;;;;;;;5060876;28;20380;-65
2023/10/09 03:14:30;;;;;;;17.92;5.53;;;;;;;;;;5071413;28;20025;-65
2023/10/09 03:16:56;;;;;;;18.05;5.43;;;;;;;;;;5058683;28;20104;-65
2023/10/09 03:19:25;;;;;;;13.60;5.25;;;;;;;;;;5064503;28;20036;-65
2023/10/09 03:21:51;;;;;;;16.52;4.68;;;;;;;;;;5060977;28;20448;-65
2023/10/09 03:24:17;;;;;;;13.57;4.78;;;;;;;;;;5070590;28;20099;-65
2023/10/09 03:26:47;;;;;;;19.92;6.20;;;;;;;;;;5053260;28;20020;-65
2023/10/09 03:29:13;;;;;;;22.27;5.67;;;;;;;;;;5070699;28;20107;-65
2023/10/09 03:31:42;;;;;;;14.32;4.85;;;;;;;;;;5068845;28;20124;-65
2023/10/09 03:34:10;;;;;;;16.73;5.32;;;;;;;;;;5070400;28;20127;-65
2023/10/09 03:36:39;;;;;;;20.95;5.25;;;;;;;;;;5071161;28;20474;-65
2023/10/09 03:41:51;;;;;;;17.23;5.53;;;;;;;;;;5053478;28;20040;-65
2023/10/09 03:44:18;;;;;;;11.93;5.03;;;;;;;;;;5070610;28;20092;-65
2023/10/09 03:46:45;;;;;;;18.33;5.53;;;;;;;;;;5070748;28;20448;-65
2023/10/09 03:49:12;;;;;;;14.27;5.22;;;;;;;;;;5059382;28;20045;-65
2023/10/09 03:51:39;;;;;;;16.40;5.28;;;;;;;;;;5068760;28;20024;-65
2023/10/09 03:54:07;;;;;;;19.83;6.68;;;;;;;;;;5069254;28;20029;-65
2023/10/09 03:56:34;;;;;;;17.73;5.10;;;;;;;;;;5071336;28;20017;-65
2023/10/09 03:59:02;;;;;;;17.15;6.13;;;;;;;;;;5059135;28;20044;-65
2023/10/09 04:01:28;;;;;;;23.00;6.40;;;;;;;;;;5071019;28;20044;-65
2023/10/09 04:03:55;;;;;;;21.67;6.13;;;;;;;;;;5070040;28;20024;-65
2023/10/09 04:06:33;;;;;;;16.13;5.63;;;;;;;;;;5071485;28;20091;-66
2023/10/09 04:08:59;;;;;;;18.92;6.05;;;;;;;;;;5062806;28;20024;-66
2023/10/09 04:11:26;;;;;;;20.73;6.35;;;;;;;;;;5070949;28;20025;-66
2023/10/09 04:13:53;;;;;;;25.40;6.80;;;;;;;;;;5069510;28;20036;-66
2023/10/09 04:18:59;;;;;;;23.92;5.75;;;;;;;;;;5061223;28;20108;-66
2023/10/09 04:21:34;;;;;;;23.45;7.18;;;;;;;;;;5062873;28;20108;-66
2023/10/09 04:26:46;;;;;;;16.35;6.35;;;;;;;;;;5064185;28;20028;-66
2023/10/09 04:29:28;;;;;;;15.98;6.15;;;;;;;;;;5062117;28;20024;-66
2023/10/09 04:32:00;;;;;;;19.80;6.88;;;;;;;;;;5049180;28;20430;-65
2023/10/09 04:34:36;;;;;;;18.23;5.75;;;;;;;;;;5064286;28;20462;-65
2023/10/09 04:39:50;;;;;;;19.27;5.97;;;;;;;;;;5041120;28;20036;-65
2023/10/09 04:45:18;;;;;;;17.75;6.75;;;;;;;;;;5060532;28;20458;-64
2023/10/09 04:47:38;;;;;;;10.65;4.97;;;;;;;;;;5062638;28;20052;-64
2023/10/09 04:55:53;;;;;;;17.30;6.20;;;;;;;;;;4980388;28;20034;-65
2023/10/09 04:58:26;;;;;;;15.98;5.50;;;;;;;;;;4981787;28;20564;-65
2023/10/09 05:01:11;;;;;;;14.35;5.38;;;;;;;;;;4979198;28;20027;-65
2023/10/09 05:06:42;;;;;;;19.83;6.15;;;;;;;;;;4971285;28;20087;-65
2023/10/09 05:09:08;;;;;;;15.38;5.50;;;;;;;;;;4965915;28;20035;-65
2023/10/09 05:11:52;;;;;;;19.55;6.95;;;;;;;;;;4972969;28;20035;-65
2023/10/09 05:14:26;;;;;;;17.58;5.78;;;;;;;;;;4972429;28;20492;-66
2023/10/09 05:16:55;;;;;;;24.70;6.00;;;;;;;;;;4971940;28;20050;-65
2023/10/09 05:22:29;;;;;;;19.83;5.70;;;;;;;;;;4972209;28;20562;-64
2023/10/09 05:24:55;;;;;;;14.82;5.35;;;;;;;;;;5035759;28;20033;-67
2023/10/09 05:27:45;;;;;;;20.50;6.97;;;;;;;;;;5060499;28;20036;-64
2023/10/09 05:30:24;;;;;;;22.23;5.72;;;;;;;;;;5071551;28;20036;-65
2023/10/09 05:32:54;;;;;;;17.50;6.38;;;;;;;;;;5055183;28;20377;-68
2023/10/09 05:35:29;;;;;;;15.60;5.05;;;;;;;;;;5072864;28;20444;-66
2023/10/09 05:38:15;;;;;;;23.35;6.35;;;;;;;;;;5072528;28;20081;-64
2023/10/09 05:40:43;;;;;;;18.88;5.43;;;;;;;;;;5057578;28;20045;-65
2023/10/09 05:44:15;;;;;;;17.50;6.00;;;;;;;;;;5044541;28;20017;-65
2023/10/09 05:46:15;;;;;;;18.05;6.18;;;;;;;;;;5062720;28;20405;-65
2023/10/09 05:51:12;;;;;;;16.35;5.43;;;;;;;;;;5060357;28;20102;-65
2023/10/09 06:04:49;;;;;;;16.98;5.35;;;;;;;;;;5067236;28;20078;-71
2023/10/09 06:07:13;;;;;;;18.08;6.28;;;;;;;;;;5070377;28;20105;-69
2023/10/09 06:09:56;;;;;;;26.92;6.68;;;;;;;;;;5059159;28;20020;-67
2023/10/09 06:12:49;;;;;;;22.92;5.97;;;;;;;;;;5061403;28;20063;-67
2023/10/09 06:15:19;;;;;;;17.80;5.57;;;;;;;;;;5061181;28;20025;-67
2023/10/09 06:17:52;;;;;;;20.02;5.88;;;;;;;;;;5059386;28;20040;-66
2023/10/09 06:23:16;;;;;;;21.60;6.55;;;;;;;;;;5028645;28;20044;-69
2023/10/09 06:25:50;;;;;;;23.27;6.03;;;;;;;;;;5060875;28;20119;-69
2023/10/09 06:28:18;;;;;;;13.25;5.40;;;;;;;;;;5063829;28;20029;-69
2023/10/09 06:30:47;;;;;;;19.70;6.25;;;;;;;;;;5061366;28;20032;-67
2023/10/09 06:33:19;;;;;;;20.33;5.97;;;;;;;;;;5066733;28;20098;-68
2023/10/09 06:35:53;;;;;;;20.23;6.65;;;;;;;;;;5052098;28;20048;-67
2023/10/09 06:38:23;;;;;;;19.23;5.95;;;;;;;;;;5057294;28;20025;-68
2023/10/09 06:45:54;;;;;;;22.35;6.10;;;;;;;;;;5050588;28;20067;-67
2023/10/09 06:54:18;;;;;;;23.60;6.65;;;;;;;;;;5053215;28;20033;-68
2023/10/09 06:58:58;;;;;;;15.60;6.63;;;;;;;;;;5066318;28;20029;-68
2023/10/09 07:03:53;;;;;;;17.13;6.20;;;;;;;;;;5058190;28;20080;-69
2023/10/09 07:06:47;;;;;;;23.77;6.78;;;;;;;;;;5059675;28;20388;-70
2023/10/09 07:14:07;;;;;;;21.47;5.57;;;;;;;;;;5058092;28;20025;-70
2023/10/09 07:16:38;;;;;;;19.80;6.50;;;;;;;;;;5051155;28;20490;-70
2023/10/09 07:19:26;;;;;;;22.90;7.40;;;;;;;;;;5055476;28;20139;-70
2023/10/09 07:21:54;;;;;;;17.75;7.10;;;;;;;;;;5043873;28;20486;-70
2023/10/09 07:24:24;;;;;;;18.33;6.20;;;;;;;;;;5056976;28;20029;-70
2023/10/09 07:26:53;;;;;;;32.05;8.15;;;;;;;;;;5050350;28;20484;-70
2023/10/09 07:29:23;;;;;;;20.63;6.20;;;;;;;;;;5056054;28;20032;-69
2023/10/09 07:31:57;;;;;;;22.90;7.70;;;;;;;;;;5055715;28;20023;-70
2023/10/09 07:34:52;;;;;;;14.75;6.28;;;;;;;;;;5061168;28;20086;-70
2023/10/09 07:37:11;;;;;;;13.63;5.40;;;;;;;;;;5051762;28;20028;-70
2023/10/09 07:39:37;;;;;;;18.38;6.47;;;;;;;;;;5055402;28;20529;-70
2023/10/09 07:42:33;;;;;;;20.83;6.68;;;;;;;;;;5050237;28;20113;-70
2023/10/09 07:45:11;;;;;;;21.88;6.55;;;;;;;;;;5063385;28;20122;-69
2023/10/09 07:48:02;;;;;;;23.38;7.60;;;;;;;;;;5063778;28;20076;-69
2023/10/09 07:50:40;;;;;;;21.20;7.32;;;;;;;;;;5038991;28;20029;-67
2023/10/09 07:53:25;;;;;;;21.10;7.10;;;;;;;;;;5052092;28;20017;-67
2023/10/09 07:55:55;;;;;;;15.05;6.25;;;;;;;;;;5064280;28;20115;-67
2023/10/09 07:58:29;;;;;;;21.80;7.80;;;;;;;;;;5053627;28;20427;-69
2023/10/09 08:01:15;;;;;;;16.67;6.15;;;;;;;;;;5052980;28;20037;-69
2023/10/09 08:03:45;;;;;;;14.82;6.00;;;;;;;;;;5047503;28;20040;-70
2023/10/09 08:06:38;;;;;;;16.58;6.18;;;;;;;;;;5056692;28;20103;-70
2023/10/09 08:19:53;;;;;;;22.00;6.80;;;;;;;;;;5044234;28;20059;-69
2023/10/09 08:24:58;;;;;;;25.75;7.15;;;17.90;99.90;;;;;;5056637;28;20798;-70
2023/10/09 08:33:02;;;;;;;17.00;6.57;;;18.20;99.90;;;;;;5059168;28;20382;-68
2023/10/09 08:35:46;;;;;;;20.73;6.65;;;18.30;99.90;;;;;;5050389;28;20036;-71
2023/10/09 08:38:11;;;;;;;27.38;7.28;;;18.60;99.90;;;;;;5056491;28;20017;-70
2023/10/09 08:40:39;;;;;;;25.63;7.43;;;18.80;99.90;;;;;;5060199;28;20382;-70
2023/10/09 08:43:18;;;;;;;19.52;7.93;;;19.00;99.90;;;;;;5053830;28;20059;-70
2023/10/09 08:45:54;;;;;;;22.27;6.93;;;18.90;99.90;;;;;;5054724;28;20171;-68
2023/10/09 08:48:21;;;;;;;17.42;6.80;;;18.80;99.90;;;;;;5064501;28;20072;-69
2023/10/09 08:50:53;;;;;;;25.17;7.80;;;18.70;99.90;;;;;;5035166;28;20067;-68
2023/10/09 08:53:20;;;;;;;21.52;7.20;;;18.70;99.90;;;;;;5042007;28;20017;-69
2023/10/09 08:55:46;;;;;;;22.98;6.65;;;18.80;99.90;;;;;;5060256;28;20122;-68
2023/10/09 08:58:24;;;;;;;22.67;7.47;;;18.80;99.90;;;;;;5066402;28;20028;-69
2023/10/09 09:00:51;;;;;;;29.65;7.53;;;18.80;99.90;;;;;;5050310;28;20540;-70
2023/10/09 09:03:19;;;;;;;19.33;6.68;;;18.80;99.90;;;;;;5057900;28;20106;-69
2023/10/09 09:05:51;;;;;;;25.52;7.72;;;18.80;99.90;;;;;;5057185;28;20031;-68
2023/10/09 09:08:25;;;;;;;165.20;18.00;;;18.90;99.90;;;;;;5050905;28;20149;-70
2023/10/09 09:11:11;;;;;;;37.70;7.93;;;19.00;99.90;;;;;;5062303;28;20082;-68
2023/10/09 09:13:41;;;;;;;69.18;11.98;;;19.10;99.90;;;;;;5050613;28;20032;-69
2023/10/09 09:16:14;;;;;;;71.60;10.20;;;19.20;99.90;;;;;;5049455;28;20462;-71
2023/10/09 09:19:04;;;;;;;47.60;9.38;;;19.30;99.90;;;;;;5046826;28;20089;-68
2023/10/09 09:21:38;;;;;;;34.55;8.93;;;19.50;99.90;;;;;;5045899;28;20064;-70
2023/10/09 09:26:58;;;;;;;35.50;7.90;;;19.80;99.90;;;;;;5049499;28;20052;-69
2023/10/09 09:29:37;;;;;;;30.10;7.97;;;20.10;99.90;;;;;;5060514;28;20477;-71
2023/10/09 09:32:23;;;;;;;24.80;7.80;;;20.40;99.90;;;;;;5050873;28;20029;-70
2023/10/09 09:35:01;;;;;;;33.70;7.85;;;20.60;99.90;;;;;;5056884;28;20032;-70
2023/10/09 09:37:28;;;;;;;32.05;8.80;;;20.60;99.90;;;;;;5058998;28;20753;-70
2023/10/09 09:40:29;;;;;;;26.98;8.32;;;20.70;99.90;;;;;;5060645;28;20402;-70
2023/10/09 09:43:06;;;;;;;23.08;6.50;;;20.80;99.90;;;;;;5030244;28;20449;-70
2023/10/09 09:45:38;;;;;;;19.90;6.85;;;20.90;99.90;;;;;;5059520;28;20032;-70
2023/10/09 09:48:11;;;;;;;31.73;8.02;;;21.00;99.90;;;;;;5066202;28;20132;-70
2023/10/09 09:50:54;;;;;;;33.45;7.82;;;21.10;99.90;;;;;;5068959;28;20476;-71
2023/10/09 09:53:23;;;;;;;24.50;6.78;;;21.10;99.90;;;;;;5044324;28;20025;-69
2023/10/09 09:55:57;;;;;;;24.10;6.72;;;21.20;99.90;;;;;;5041757;28;20029;-67
2023/10/09 09:58:24;;;;;;;28.65;7.07;;;21.30;99.90;;;;;;5066106;28;20074;-67
2023/10/09 10:00:59;;;;;;;24.23;6.60;;;21.40;99.90;;;;;;5066719;28;20033;-67
2023/10/09 10:03:33;;;;;;;26.17;6.55;;;21.50;99.90;;;;;;5045804;28;20037;-67
2023/10/09 10:06:00;;;;;;;21.85;6.47;;;21.70;99.90;;;;;;5053924;28;20512;-67
2023/10/09 10:08:33;;;;;;;20.67;6.45;;;21.80;99.90;;;;;;5064286;28;20024;-70
2023/10/09 10:11:05;;;;;;;20.75;6.63;;;21.90;99.90;;;;;;5053743;28;20028;-68
2023/10/09 10:13:42;;;;;;;27.42;7.20;;;22.00;99.90;;;;;;5053453;28;20025;-68
2023/10/09 10:19:07;;;;;;;25.58;7.13;;;22.30;99.90;;;;;;5067735;28;20393;-69
2023/10/09 10:24:09;;;;;;;20.98;6.82;;;22.50;99.90;;;;;;5062889;28;20864;-67
2023/10/09 10:26:36;;;;;;;25.17;11.55;;;22.60;99.90;;;;;;5060622;28;20108;-66
2023/10/09 10:29:23;;;;;;;22.77;8.93;;;22.80;99.90;;;;;;5068873;28;20021;-67
2023/10/09 10:32:08;;;;;;;23.85;7.97;;;22.90;99.90;;;;;;5055460;28;20052;-68
2023/10/09 10:34:56;;;;;;;19.63;6.90;;;23.00;99.90;;;;;;5063035;28;20056;-67
2023/10/09 10:37:37;;;;;;;25.25;7.45;;;23.00;99.90;;;;;;5046466;28;20025;-67
2023/10/09 10:40:14;;;;;;;29.58;7.00;;;22.90;99.90;;;;;;5058932;28;20098;-68
2023/10/09 10:43:09;;;;;;;23.33;6.60;;;22.90;99.90;;;;;;5054384;28;20064;-68
2023/10/09 10:45:43;;;;;;;22.45;6.75;;;22.90;99.90;;;;;;5053052;28;20078;-68
2023/10/09 10:48:11;;;;;;;21.17;6.45;;;22.80;99.90;;;;;;5060076;28;20045;-67
2023/10/09 10:50:37;;;;;;;17.30;6.30;;;22.80;99.90;;;;;;5062390;28;20113;-68
2023/10/09 10:53:15;;;;;;;21.08;7.68;;;22.70;99.90;;;;;;5062832;28;20120;-67
2023/10/09 10:59:26;;;;;;;19.13;6.93;;;22.70;99.90;;;;;;5064786;28;20373;-67
2023/10/09 11:01:50;;;;;;;21.85;6.45;;;22.80;99.90;;;;;;5036603;28;20045;-67
2023/10/09 11:07:00;;;;;;;32.08;8.65;;;22.90;99.90;;;;;;5060391;28;20363;-68
2023/10/09 11:09:35;;;;;;;25.55;8.20;;;22.90;99.90;;;;;;5056572;28;20040;-68
2023/10/09 11:13:30;;;;;;;31.77;9.27;;;23.00;99.90;;;;;;5054858;28;20079;-68
2023/10/09 11:15:07;;;;;;;28.98;7.88;;;23.20;99.90;;;;;;5032698;28;20029;-67
2023/10/09 11:17:35;;;;;;;32.53;8.23;;;23.20;99.90;;;;;;5058412;28;20032;-67
2023/10/09 11:20:22;;;;;;;25.38;7.93;;;23.30;99.90;;;;;;5058421;28;20178;-67
2023/10/09 11:25:33;;;;;;;24.20;7.90;;;23.70;99.90;;;;;;5067487;28;20086;-67
2023/10/09 11:28:15;;;;;;;26.80;9.02;;;24.00;99.90;;;;;;5058334;28;20033;-67
2023/10/09 11:30:45;;;;;;;33.03;8.98;;;24.10;99.90;;;;;;5053675;28;20075;-68
2023/10/09 11:33:14;;;;;;;30.60;9.63;;;24.30;99.90;;;;;;5046190;28;20036;-68
2023/10/09 11:35:42;;;;;;;33.95;8.27;;;24.20;99.90;;;;;;5060997;28;20056;-67
2023/10/09 11:38:21;;;;;;;30.90;9.77;;;24.10;99.90;;;;;;5057153;28;20029;-67
2023/10/09 11:43:24;;;;;;;36.65;9.18;;;23.70;99.90;;;;;;5060149;28;20381;-67
2023/10/09 11:45:56;;;;;;;28.48;7.85;;;23.60;99.90;;;;;;5053042;28;20033;-67
2023/10/09 11:48:33;;;;;;;34.83;8.82;;;23.40;99.90;;;;;;5066696;28;20047;-67
2023/10/09 11:53:49;;;;;;;18.25;6.90;;;23.10;99.90;;;;;;5056777;28;20029;-69
2023/10/09 11:56:19;;;;;;;29.80;7.18;;;22.90;99.90;;;;;;5057240;28;20489;-69
2023/10/09 11:58:53;;;;;;;28.20;7.72;;;22.90;99.90;;;;;;5060326;28;20036;-69
2023/10/09 12:01:22;;;;;;;22.23;6.68;;;22.90;99.90;;;;;;5055571;28;20470;-67
2023/10/09 12:03:52;;;;;;;22.52;7.47;;;22.80;99.90;;;;;;5060244;28;20106;-66
2023/10/09 12:06:22;;;;;;;23.08;7.45;;;22.80;99.90;;;;;;5057061;28;20108;-67
2023/10/09 12:08:48;;;;;;;18.38;7.20;;;22.70;99.90;;;;;;5052539;28;20051;-66
2023/10/09 12:11:28;;;;;;;18.45;6.85;;;22.70;99.90;;;;;;5063231;28;20036;-66
2023/10/09 12:13:58;;;;;;;17.50;7.05;;;22.70;99.90;;;;;;5064624;28;20063;-69
2023/10/09 12:16:32;;;;;;;21.27;7.03;;;22.80;99.90;;;;;;5041331;28;20029;-66
2023/10/09 12:18:59;;;;;;;13.88;6.05;;;22.90;99.90;;;;;;5058701;28;20025;-69
2023/10/09 12:21:27;;;;;;;20.02;6.03;;;23.10;99.90;;;;;;5065237;28;20040;-66
2023/10/09 12:23:57;;;;;;;14.15;5.70;;;23.40;99.90;;;;;;5063748;28;20065;-68
2023/10/09 12:26:22;;;;;;;27.00;6.03;;;23.70;99.90;;;;;;5060789;28;20063;-69
2023/10/09 12:28:49;;;;;;;14.68;5.72;;;24.00;99.90;;;;;;5062734;28;20443;-68
2023/10/09 12:31:19;;;;;;;17.42;5.47;;;24.30;99.90;;;;;;5055991;28;20112;-68
2023/10/09 12:33:46;;;;;;;;;;;24.60;99.40;;;;;;5054052;28;20024;-66
2023/10/09 12:36:19;;;;;;;23.65;7.80;;;24.90;95.30;;;;;;5049256;28;19909;-66
2023/10/09 12:38:47;;;;;;;26.77;8.40;;;25.20;91.40;;;;;;5066116;28;20458;-66
2023/10/09 12:41:26;;;;;;;45.03;12.23;;;25.60;91.50;;;;;;5058921;28;20041;-66
2023/10/09 12:43:52;;;;;;;30.38;8.93;;;25.90;92.20;;;;;;5050275;28;20029;-66
2023/10/09 12:46:22;;;;;;;30.38;9.07;;;26.10;93.80;;;;;;5057237;28;20028;-66
2023/10/09 12:48:48;;;;;;;31.42;9.75;;;26.20;93.40;;;;;;5067475;28;20155;-66
2023/10/09 12:51:18;;;;;;;28.70;8.05;;;26.20;92.40;;;;;;5054905;28;20052;-66
2023/10/09 12:53:56;;;;;;;26.60;7.00;;;26.10;93.00;;;;;;5054290;28;20439;-67
2023/10/09 12:56:38;;;;;;;26.95;8.43;;;26.00;92.10;;;;;;5067081;28;20072;-66
2023/10/09 12:59:04;;;;;;;27.70;7.60;;;26.00;92.20;;;;;;5060947;28;20025;-66
2023/10/09 13:01:42;;;;;;;17.27;6.95;;;26.00;92.40;;;;;;5064942;28;20038;-67
2023/10/09 13:04:15;;;;;;;22.40;7.50;;;25.90;81.00;;;;;;5061308;28;20043;-69
2023/10/09 13:06:44;;;;;;;23.50;8.20;;;25.80;89.40;;;;;;5061431;28;20430;-67
2023/10/09 13:09:34;;;;;;;18.80;7.20;;;25.70;90.30;;;;;;5056719;28;20040;-67
2023/10/09 13:12:02;;;;;;;16.45;7.13;;;25.60;86.40;;;;;;5058089;28;20027;-67
2023/10/09 13:14:28;;;;;;;24.63;7.60;;;25.50;86.60;;;;;;5072301;28;20140;-69
2023/10/09 13:16:54;;;;;;;20.63;7.80;;;25.50;87.80;;;;;;5058807;28;20061;-70
2023/10/09 13:19:24;;;;;;;19.58;7.18;;;25.70;84.60;;;;;;5065319;28;20025;-68
2023/10/09 13:21:50;;;;;;;18.27;7.00;;;25.70;83.10;;;;;;5055752;28;20025;-67
2023/10/09 13:24:15;;;;;;;33.38;8.05;;;25.70;80.80;;;;;;5065260;28;20056;-67
2023/10/09 13:26:46;;;;;;;14.75;7.78;;;25.80;83.80;;;;;;5062296;28;20033;-67
2023/10/09 13:29:13;;;;;;;17.08;8.18;;;25.80;70.20;;;;;;5069352;28;20108;-67
2023/10/09 13:31:46;;;;;;;18.73;8.05;;;25.90;68.00;;;;;;5058149;28;20028;-67
2023/10/09 13:34:14;;;;;;;17.75;8.30;;;26.10;66.90;;;;;;5056732;28;20052;-67
2023/10/09 13:36:45;;;;;;;21.33;8.35;;;26.50;66.90;;;;;;5062078;28;20025;-67
2023/10/09 13:39:26;;;;;;;17.55;8.05;;;26.70;65.70;;;;;;5069631;28;20025;-67
2023/10/09 13:41:59;;;;;;;17.98;8.68;;;27.00;65.20;;;;;;5052242;28;20029;-67
2023/10/09 13:44:31;;;;;;;20.08;9.10;;;;;;;;;;5052998;28;20032;-67
2023/10/09 13:47:01;;;;;;;13.93;8.35;;;;;;;;;;5067115;28;20045;-67
2023/10/09 13:49:29;;;;;;;17.35;9.20;;;;;;;;;;5071204;28;20051;-68
2023/10/09 13:51:56;;;;;;;16.23;9.98;;;;;;;;;;5057219;28;20057;-68
2023/10/09 13:54:39;;;;;;;18.80;8.25;;;;;;;;;;5054647;28;20112;-67
2023/10/09 13:57:05;;;;;;;14.65;8.77;;;;;;;;;;5047152;28;20206;-77
2023/10/09 13:59:32;;;;;;;16.95;9.10;;;;;;;;;;5056599;28;20144;-76
2023/10/09 14:01:59;;;;;;;15.65;8.65;;;;;;;;;;5047640;28;20390;-73
2023/10/09 14:04:28;;;;;;;13.70;8.32;;;;;;;;;;5060400;28;20044;-75
2023/10/09 14:06:58;;;;;;;13.60;8.10;;;;;;;;;;5056679;28;20037;-71
2023/10/09 14:09:54;;;;;;;18.23;9.32;;;;;;;;;;5059988;28;20382;-70
2023/10/09 14:12:11;;;;;;;16.52;7.72;;;;;;;;;;5053892;28;20033;-70
2023/10/09 14:14:46;;;;;;;13.85;8.48;;;;;;;;;;5070384;28;20021;-69
2023/10/09 14:17:13;;;;;;;11.45;7.75;;;;;;;;;;5056750;28;20054;-68
2023/10/09 14:19:48;;;;;;;14.80;7.95;;;;;;;;;;5059980;28;20044;-69
2023/10/09 14:22:27;;;;;;;15.07;8.13;;;;;;;;;;5051371;28;20036;-69
2023/10/09 14:24:56;;;;;;;13.52;8.07;;;;;;;;;;5050346;28;20116;-69
2023/10/09 14:27:26;;;;;;;11.23;7.65;;;;;;;;;;5044758;28;20036;-69
2023/10/09 14:29:55;;;;;;;16.87;8.20;;;;;;;;;;5037664;28;20021;-68
2023/10/09 14:32:28;;;;;;;14.15;7.78;;;;;;;;;;5050182;28;20025;-68
2023/10/09 14:34:55;;;;;;;13.82;7.70;;;;;;;;;;5049309;28;20033;-67
2023/10/09 14:37:23;;;;;;;18.13;8.60;;;;;;;;;;5051613;28;20033;-69
2023/10/09 14:39:49;;;;;;;14.68;7.93;;;;;;;;;;5048421;28;20074;-65
2023/10/09 14:42:20;;;;;;;12.55;8.15;;;;;;;;;;5052049;28;20063;-71
2023/10/09 14:44:46;;;;;;;12.32;7.47;;;;;;;;;;5055114;28;20033;-70
2023/10/09 14:47:14;;;;;;;11.98;7.63;;;;;;;;;;5058068;28;20481;-67
2023/10/09 14:49:46;;;;;;;12.27;7.25;;;;;;;;;;5065392;28;20027;-71
2023/10/09 14:52:16;;;;;;;11.90;7.70;;;;;;;;;;5055740;28;20025;-72
2023/10/09 14:54:42;;;;;;;;;;;;;;;;;;5058576;28;20103;-75
2023/10/09 14:57:11;;;;;;;16.92;7.97;;;;;;;;;;5064769;28;20464;-76
2023/10/09 14:59:37;;;;;;;12.13;7.05;;;;;;;;;;5062118;28;20032;-74
2023/10/09 15:02:05;;;;;;;10.40;6.97;;;;;;;;;;5057606;28;20128;-69
2023/10/09 15:04:31;;;;;;;12.60;7.32;;;;;;;;;;5056181;28;20028;-70
2023/10/09 15:06:57;;;;;;;14.13;7.75;;;;;;;;;;5063979;28;20107;-70
2023/10/09 15:09:28;;;;;;;15.02;7.55;;;;;;;;;;5061950;28;20031;-70
2023/10/09 15:11:54;;;;;;;13.02;7.50;;;;;;;;;;5060379;28;20100;-69
2023/10/09 15:14:20;;;;;;;10.57;7.90;;;;;;;;;;5064695;28;20139;-70
2023/10/09 15:16:46;;;;;;;10.50;7.28;;;;;;;;;;5059384;28;20039;-67
2023/10/09 15:19:12;;;;;;;12.00;7.15;;;;;;;;;;5059233;28;20032;-70
2023/10/09 15:21:44;;;;;;;13.15;7.07;;;;;;;;;;5056078;28;20025;-65
2023/10/09 15:24:15;;;;;;;13.93;7.40;;;;;;;;;;5064813;28;20016;-68
2023/10/09 15:26:41;;;;;;;14.63;8.65;;;;;;;;;;5053997;28;20134;-69
2023/10/09 15:29:09;;;;;;;14.85;8.68;;;;;;;;;;5061177;28;20469;-69
2023/10/09 15:31:36;;;;;;;13.43;8.48;;;;;;;;;;5053504;28;20033;-68
2023/10/09 15:34:02;;;;;;;14.50;8.52;;;;;;;;;;5064872;28;20100;-68
2023/10/09 15:36:31;;;;;;;16.60;8.63;;;;;;;;;;5056192;28;20036;-69
2023/10/09 15:39:00;;;;;;;13.68;8.27;;;;;;;;;;5048243;28;20112;-68
2023/10/09 15:41:29;;;;;;;13.07;7.40;;;;;;;;;;5061668;28;20079;-68
2023/10/09 15:43:57;;;;;;;15.85;8.25;;;;;;;;;;5059820;28;20083;-68
2023/10/09 15:46:23;;;;;;;12.50;7.40;;;;;;;;;;5060323;28;20033;-68
2023/10/09 15:48:51;;;;;;;12.80;7.63;;;;;;;;;;5052233;28;20052;-68
2023/10/09 15:51:17;;;;;;;15.05;8.35;;;;;;;;;;5059732;28;20025;-68
2023/10/09 15:53:46;;;;;;;13.95;8.18;;;;;;;;;;5051370;28;20039;-68
2023/10/09 15:56:13;;;;;;;19.33;8.07;;;;;;;;;;5064675;28;20086;-68
2023/10/09 15:58:45;;;;;;;18.95;8.02;;;;;;;;;;5054298;28;20100;-68
2023/10/09 16:01:15;;;;;;;11.95;7.07;;;;;;;;;;5052309;28;20083;-69
2023/10/09 16:03:41;;;;;;;13.70;7.93;;;;;;;;;;5065086;28;20067;-68
2023/10/09 16:06:16;;;;;;;12.95;7.03;;;22.80;80.20;;;;;;5053555;28;20085;-67
2023/10/09 16:08:46;;;;;;;20.30;7.80;;;22.70;82.20;;;;;;5058727;28;20029;-68
2023/10/09 16:11:18;;;;;;;13.93;6.95;;;22.50;66.10;;;;;;5059655;28;20029;-68
2023/10/09 16:13:44;;;;;;;13.27;7.60;;;22.40;66.40;;;;;;5054671;28;20691;-68